Terminal Aerodrome Forecast
Issued by NWS Charleston, WV

Current Version | Previous Version | Graphics & Text | Print | Product List | Glossary On
Versions: 1 2 3 4 5 6 7 8 9 10 11 12 13 14 15 16 17 18 19 20 21 22 23 24
079
FTUS41 KRLX 231441 AAB
TAFCRW
TAF AMD
KCRW 231441Z 2315/2412 00000KT 4SM BR BKN008
     FM231530 VRB03KT P6SM SCT012
     FM231600 VRB03KT P6SM SCT045
     FM240500 00000KT 4SM BR SCT250
     FM240600 00000KT 1/4SM FG VV001=

USA.gov is the U.S. government's official web portal to all federal, state and local government web resources and services.